Time;durP1;ratioP1;P1;durP2;ratioP2;P2;SDS_P1;SDS_P2;PMS_P1;PMS_P2;Temp;Humidity;BMP_temperature;BMP_pressure;BME280_temperature;BME280_humidity;BME280_pressure;Samples;Min_cycle;Max_cycle;Signal;HPM_P1;HPM_P2
2021/12/17 00:04:37;;;;;;;22.25;15.23;;;;;;;10.49;78.08;103934.19;5117028;28;20043;-65
2021/12/17 00:07:12;;;;;;;21.88;15.52;;;;;;;10.49;77.82;103937.78;5116627;28;20400;-65
2021/12/17 00:09:39;;;;;;;22.27;15.15;;;;;;;10.54;78.23;103943.34;5116525;28;20027;-65
2021/12/17 00:12:10;;;;;;;20.25;14.85;;;;;;;10.53;78.29;103939.78;5116671;28;20027;-65
2021/12/17 00:14:38;;;;;;;24.33;15.65;;;;;;;10.43;77.97;103926.81;5116756;28;20032;-65
2021/12/17 00:17:08;;;;;;;21.77;16.02;;;;;;;10.36;78.28;103927.25;5116608;28;20468;-65
2021/12/17 00:49:21;;;;;;;30.90;18.45;;;;;;;10.62;78.41;103925.25;5116040;28;20032;-65
2021/12/17 00:51:57;;;;;;;29.67;17.52;;;;;;;10.66;78.01;103925.56;5115712;28;20019;-65
2021/12/17 00:54:34;;;;;;;29.45;17.90;;;;;;;10.56;78.35;103925.81;5116108;28;20027;-65
2021/12/17 00:57:07;;;;;;;30.83;18.73;;;;;;;10.54;78.25;103924.81;5097498;28;20028;-65
2021/12/17 00:59:33;;;;;;;29.13;18.17;;;;;;;10.56;78.18;103923.16;5115549;28;20112;-64
2021/12/17 01:02:00;;;;;;;31.10;19.05;;;;;;;10.63;78.14;103932.41;5115533;28;20052;-65
2021/12/17 01:04:26;;;;;;;40.58;22.88;;;;;;;10.67;78.53;103924.75;5115554;28;20024;-65
2021/12/17 01:06:51;;;;;;;36.17;20.25;;;;;;;10.69;78.22;103925.72;5115654;28;20381;-65
2021/12/17 01:09:20;;;;;;;36.92;21.52;;;;;;;10.62;78.12;103925.25;5115738;28;20094;-65
2021/12/17 01:11:48;;;;;;;44.95;22.80;;;;;;;10.52;78.33;103914.13;5115605;28;20039;-64
2021/12/17 01:14:14;;;;;;;40.35;22.08;;;;;;;10.47;78.56;103915.59;5115500;28;20030;-64
2021/12/17 01:16:40;;;;;;;39.42;22.05;;;;;;;10.37;79.03;103904.41;5115305;28;20026;-65
2021/12/17 01:21:53;;;;;;;45.42;23.65;;;;;;;10.39;79.69;103914.22;5115311;28;20039;-65
2021/12/17 01:35:28;;;;;;;57.90;26.80;;;;;;;10.48;79.15;103909.47;5115171;28;20039;-65
2021/12/17 01:43:33;;;;;;;52.08;26.15;;;;;;;10.33;79.91;103890.06;5114910;28;20023;-64
2021/12/17 01:45:58;;;;;;;54.92;26.98;;;;;;;10.37;80.13;103901.75;5115030;28;20032;-65
2021/12/17 01:48:33;;;;;;;54.28;26.80;;;;;;;10.46;79.86;103915.53;5114935;28;20098;-65
2021/12/17 01:56:49;;;;;;;55.28;27.08;;;;;;;10.37;79.98;103900.00;5114679;28;20042;-65
2021/12/17 01:59:22;;;;;;;63.35;28.10;;;;;;;10.39;80.52;103894.81;5114334;28;20090;-65
2021/12/17 02:01:51;;;;;;;57.33;26.95;;;;;;;10.42;80.33;103903.84;5114684;28;20388;-65
2021/12/17 02:04:17;;;;;;;54.38;27.27;;;;;;;10.45;79.71;103901.41;5114773;28;20068;-65
2021/12/17 02:06:42;;;;;;;54.35;26.35;;;;;;;10.50;79.59;103902.56;5114649;28;20027;-64
2021/12/17 02:20:41;;;;;;;59.38;27.23;;;;;;;10.41;79.69;103903.75;5114573;28;20122;-65
2021/12/17 02:28:53;;;;;;;56.60;27.17;;;;;;;10.21;81.00;103911.34;5114160;28;20043;-65
2021/12/17 02:31:31;;;;;;;58.90;27.02;;;;;;;10.16;81.01;103909.25;5114014;28;20024;-64
2021/12/17 02:34:01;;;;;;;59.30;27.52;;;;;;;10.12;81.44;103917.78;5114033;28;20035;-65
2021/12/17 02:36:31;;;;;;;60.53;27.33;;;;;;;10.10;81.25;103915.03;5113375;28;20035;-65
2021/12/17 02:39:18;;;;;;;60.47;27.25;;;;;;;10.08;81.51;103907.84;5113466;28;20024;-64
2021/12/17 02:47:19;;;;;;;57.22;25.85;;;;;;;10.01;81.89;103907.44;5113803;28;20053;-65
2021/12/17 02:49:47;;;;;;;60.50;26.52;;;;;;;9.98;82.05;103914.31;5113873;28;20464;-64
2021/12/17 02:52:14;;;;;;;72.88;29.20;;;;;;;9.90;82.41;103910.25;5113707;28;20024;-65
2021/12/17 02:54:40;;;;;;;64.65;27.30;;;;;;;9.89;82.59;103901.44;5113589;28;20449;-64
2021/12/17 02:57:08;;;;;;;60.90;26.40;;;;;;;9.87;82.77;103907.44;5113702;28;20035;-64
2021/12/17 02:59:36;;;;;;;71.43;28.63;;;;;;;9.86;82.75;103906.50;5113512;28;20400;-64
2021/12/17 03:02:03;;;;;;;64.55;27.13;;;;;;;9.94;82.67;103912.28;5113566;28;20106;-65
2021/12/17 03:04:30;;;;;;;62.55;28.15;;;;;;;9.90;83.02;103918.19;5113784;28;20020;-65
2021/12/17 03:06:57;;;;;;;62.65;27.05;;;;;;;9.89;83.01;103905.78;5113648;28;20020;-65
2021/12/17 03:09:36;;;;;;;62.30;27.08;;;;;;;9.84;82.98;103905.50;5113520;28;20365;-65
2021/12/17 03:12:08;;;;;;;62.60;25.77;;;;;;;9.83;83.19;103908.94;5113501;28;20032;-65
2021/12/17 03:14:41;;;;;;;60.78;26.05;;;;;;;9.82;82.67;103909.78;5113488;28;20035;-65
2021/12/17 03:17:10;;;;;;;;;;;;;;;9.91;82.16;103910.34;5114149;28;20032;-65
2021/12/17 03:25:11;;;;;;;64.70;25.83;;;;;;;9.72;83.49;103917.91;5115108;28;20496;-64
2021/12/17 03:27:37;;;;;;;67.15;28.05;;;;;;;9.74;83.65;103922.50;5117734;28;20019;-65
2021/12/17 03:30:08;;;;;;;67.97;27.95;;;;;;;9.71;84.04;103919.66;5117788;28;20024;-64
2021/12/17 03:32:34;;;;;;;71.28;29.05;;;;;;;9.71;83.96;103908.19;5117591;28;20114;-64
2021/12/17 03:35:00;;;;;;;72.63;29.08;;;;;;;9.73;84.17;103918.03;5117410;28;20102;-65
2021/12/17 03:37:27;;;;;;;78.00;30.08;;;;;;;9.68;84.20;103906.28;5117133;28;20036;-65
2021/12/17 03:39:52;;;;;;;72.38;30.23;;;;;;;9.79;83.91;103913.13;5117428;28;20027;-65
2021/12/17 03:42:23;;;;;;;76.57;30.40;;;;;;;9.83;83.79;103921.25;5117452;28;20094;-65
2021/12/17 03:44:48;;;;;;;79.22;29.75;;;;;;;9.91;83.70;103918.28;5117162;28;20504;-64
2021/12/17 03:47:14;;;;;;;76.32;29.23;;;;;;;9.98;82.87;103922.22;5117210;28;20023;-65
2021/12/17 03:49:41;;;;;;;74.72;29.38;;;;;;;10.12;82.62;103923.06;5117265;28;20104;-64
2021/12/17 03:52:07;;;;;;;73.63;28.90;;;;;;;10.22;82.19;103925.47;5116969;28;20061;-65
2021/12/17 03:54:34;;;;;;;76.07;30.80;;;;;;;10.26;81.92;103920.50;5098786;28;20080;-65
2021/12/17 03:57:00;;;;;;;80.45;30.65;;;;;;;10.21;81.97;103903.41;5116945;28;20032;-63
2021/12/17 03:59:26;;;;;;;77.65;30.67;;;;;;;10.16;82.27;103922.44;5116923;28;20054;-64
2021/12/17 04:01:51;;;;;;;78.97;30.83;;;;;;;10.14;82.23;103911.75;5116847;28;20068;-65
2021/12/17 04:04:17;;;;;;;75.45;29.42;;;;;;;10.19;82.37;103912.03;5117116;28;20020;-65
2021/12/17 04:06:43;;;;;;;78.28;30.73;;;;;;;10.19;82.16;103907.72;5116701;28;20392;-65
2021/12/17 04:09:09;;;;;;;79.88;31.83;;;;;;;10.15;82.36;103913.63;5116784;28;20070;-65
2021/12/17 04:11:35;;;;;;;75.18;30.83;;;;;;;10.14;82.50;103901.19;5116755;28;20392;-65
2021/12/17 04:14:00;;;;;;;83.28;32.17;;;;;;;10.13;82.64;103903.75;5116711;28;20028;-65
2021/12/17 04:16:30;;;;;;;79.25;31.38;;;;;;;10.16;82.42;103907.50;5116481;28;20043;-65
2021/12/17 04:18:56;;;;;;;88.05;32.63;;;;;;;10.17;82.57;103909.31;5098397;28;20199;-66
2021/12/17 04:21:22;;;;;;;83.15;33.03;;;;;;;10.24;82.16;103911.56;5098289;28;20387;-65
2021/12/17 04:23:49;;;;;;;82.43;32.55;;;;;;;10.25;82.27;103899.25;5116285;28;20102;-65
2021/12/17 04:26:16;;;;;;;77.57;31.67;;;;;;;10.31;82.10;103911.94;5116493;28;20028;-64
2021/12/17 04:28:45;;;;;;;76.78;30.92;;;;;;;10.24;81.89;103903.66;5116432;28;20043;-65
2021/12/17 04:31:11;;;;;;;78.53;30.33;;;;;;;10.18;82.15;103900.56;5116363;28;20024;-65
2021/12/17 04:33:39;;;;;;;66.18;27.63;;;;;;;10.24;82.21;103910.63;5116418;28;20028;-65
2021/12/17 04:36:06;;;;;;;61.60;26.33;;;;;;;10.20;82.11;103904.22;5115749;28;20054;-65
2021/12/17 04:38:32;;;;;;;68.00;27.95;;;;;;;10.16;82.22;103906.59;5116668;28;20062;-65
2021/12/17 04:41:13;;;;;;;66.97;27.45;;;;;;;10.09;82.23;103910.56;5116412;28;20055;-64
2021/12/17 04:43:51;;;;;;;69.15;28.65;;;;;;;10.09;82.57;103909.66;5116474;28;20032;-64
2021/12/17 04:46:32;;;;;;;71.30;27.38;;;;;;;10.04;83.04;103905.00;5116167;28;20160;-65
2021/12/17 04:57:22;;;;;;;68.15;26.65;;;;;;;10.10;83.00;103898.28;5116082;28;20034;-65
2021/12/17 04:59:48;;;;;;;64.65;26.60;;;;;;;10.04;82.77;103897.09;5115579;28;20080;-65
2021/12/17 05:02:15;;;;;;;60.38;24.52;;;;;;;10.09;82.94;103910.56;5115830;28;20032;-65
2021/12/17 05:04:42;;;;;;;71.28;26.13;;;;;;;10.02;82.71;103904.03;5115776;28;20495;-65
2021/12/17 05:07:11;;;;;;;73.40;26.75;;;;;;;9.98;83.04;103907.28;5115719;28;20055;-65
2021/12/17 05:09:49;;;;;;;65.45;25.92;;;;;;;9.93;83.46;103900.78;5115611;28;20076;-65
2021/12/17 05:20:31;;;;;;;60.75;23.88;;;;;;;9.92;83.19;103904.25;5115849;28;20050;-65
2021/12/17 05:22:59;;;;;;;61.95;23.10;;;;;;;9.90;83.56;103907.63;5115180;28;20469;-65
2021/12/17 05:25:26;;;;;;;60.45;22.88;;;;;;;9.88;83.41;103910.16;5115407;28;20460;-64
2021/12/17 05:27:55;;;;;;;60.42;23.50;;;;;;;9.86;83.90;103916.16;5115531;28;20027;-65
2021/12/17 05:30:22;;;;;;;61.13;23.00;;;;;;;9.90;83.82;103920.84;5115183;28;20030;-65
2021/12/17 05:32:47;;;;;;;63.13;23.00;;;;;;;9.90;83.75;103926.13;5115424;28;20081;-65
2021/12/17 05:35:13;;;;;;;61.78;22.02;;;;;;;9.88;84.17;103922.44;5115226;28;20027;-65
2021/12/17 05:37:38;;;;;;;55.63;22.48;;;;;;;9.83;83.82;103924.81;5115108;28;20030;-65
2021/12/17 05:40:04;;;;;;;56.40;21.63;;;;;;;9.87;84.00;103931.19;5115089;28;20098;-64
2021/12/17 05:42:30;;;;;;;52.92;20.83;;;;;;;9.90;83.81;103927.03;5115232;28;20050;-65
2021/12/17 05:44:59;;;;;;;52.75;19.90;;;;;;;9.97;83.18;103917.75;5114975;28;20056;-65
2021/12/17 05:47:25;;;;;;;50.15;19.30;;;;;;;10.01;83.05;103918.03;5114223;28;20028;-64
2021/12/17 05:49:50;;;;;;;51.63;19.20;;;;;;;10.01;83.05;103912.72;5096477;28;20023;-65
2021/12/17 05:52:16;;;;;;;50.97;19.48;;;;;;;10.03;82.70;103904.94;5114800;28;20110;-64
2021/12/17 05:54:41;;;;;;;48.00;18.45;;;;;;;10.12;82.61;103918.69;5096387;28;20024;-65
2021/12/17 05:57:07;;;;;;;48.53;18.15;;;;;;;10.09;82.89;103912.31;5114829;28;20045;-65
2021/12/17 05:59:34;;;;;;;50.03;19.17;;;;;;;9.99;82.74;103916.13;5096304;28;20050;-65
2021/12/17 06:02:04;;;;;;;47.35;18.13;;;;;;;9.94;83.10;103926.41;5114598;28;20024;-65
2021/12/17 06:04:29;;;;;;;47.97;17.83;;;;;;;9.92;83.13;103933.31;5114367;28;20045;-65
2021/12/17 06:06:55;;;;;;;46.47;17.15;;;;;;;9.93;83.66;103928.94;5114428;28;20460;-65
2021/12/17 06:09:20;;;;;;;47.03;18.05;;;;;;;9.88;83.11;103925.09;5114658;28;20540;-65
2021/12/17 06:11:46;;;;;;;44.85;16.90;;;;;;;9.76;83.47;103923.53;5114606;28;20023;-65
2021/12/17 06:14:11;;;;;;;46.58;17.05;;;;;;;9.71;83.93;103929.31;5114341;28;20019;-65
2021/12/17 06:16:37;;;;;;;43.72;16.25;;;;;;;9.70;84.16;103936.31;5114168;28;20391;-64
2021/12/17 06:19:03;;;;;;;38.58;15.23;;;;;;;9.73;84.05;103936.53;5114401;28;20072;-65
2021/12/17 06:21:29;;;;;;;42.63;16.65;;;;;;;9.75;83.82;103939.25;5114439;28;20024;-65
2021/12/17 06:23:54;;;;;;;40.88;15.50;;;;;;;9.75;83.87;103948.06;5114250;28;20043;-64
2021/12/17 06:26:20;;;;;;;38.20;14.57;;;;;;;9.73;83.80;103949.72;5114279;28;20431;-65
2021/12/17 06:28:49;;;;;;;97.55;51.53;;;;;;;9.76;83.76;103952.56;5114091;28;20080;-64
2021/12/17 06:31:17;;;;;;;44.47;19.42;;;;;;;9.78;83.81;103950.91;5114024;28;20039;-65
2021/12/17 06:33:43;;;;;;;36.40;14.13;;;;;;;9.78;83.79;103955.28;5113973;28;20023;-65
2021/12/17 06:36:08;;;;;;;35.85;13.95;;;;;;;9.73;83.54;103948.81;5113786;28;20553;-65
2021/12/17 06:38:34;;;;;;;33.05;13.60;;;;;;;9.74;83.59;103943.63;5113885;28;20023;-65
2021/12/17 06:40:59;;;;;;;34.83;13.55;;;;;;;9.73;83.49;103949.72;5113992;28;20031;-65
2021/12/17 06:43:39;;;;;;;36.08;12.88;;;;;;;9.76;83.43;103947.28;5113904;28;20468;-64
2021/12/17 06:46:23;;;;;;;36.80;13.07;;;;;;;9.77;83.25;103954.38;5095621;28;20023;-65
2021/12/17 06:48:55;;;;;;;35.38;12.93;;;;;;;9.71;83.35;103942.50;5113878;28;20109;-64
2021/12/17 07:40:52;;;;;;;33.92;12.75;;;;;;;9.48;84.87;103928.75;5113192;28;20043;-64
2021/12/17 07:43:35;;;;;;;33.72;12.07;;;;;;;9.49;84.68;103937.56;5112609;28;20028;-64
2021/12/17 07:46:01;;;;;;;30.15;12.20;;;;;;;9.49;84.71;103942.84;5112825;28;20024;-64
2021/12/17 07:48:27;;;;;;;33.95;12.40;;;;;;;9.48;84.83;103941.03;5112500;28;20024;-64
2021/12/17 07:50:53;;;;;;;28.52;12.63;;;;;;;9.47;84.92;103940.13;5112814;28;20023;-65
2021/12/17 07:53:19;;;;;;;34.03;12.57;;;;;;;9.51;85.06;103938.59;5112958;28;20027;-65
2021/12/17 07:55:44;;;;;;;32.58;12.30;;;;;;;9.54;84.63;103938.78;5112754;28;20031;-65
2021/12/17 07:58:10;;;;;;;33.58;12.93;;;;;;;9.56;84.93;103934.53;5112283;28;20040;-65
2021/12/17 08:00:36;;;;;;;32.45;13.07;;;;;;;9.61;84.74;103943.66;5112625;28;20024;-65
2021/12/17 08:03:03;;;;;;;33.75;13.32;;;;;;;9.63;84.57;103933.19;5112627;28;20028;-65
2021/12/17 08:05:28;;;;;;;35.00;13.65;;;;;;;9.64;84.74;103946.50;5112476;28;20028;-65
2021/12/17 08:07:54;;;;;;;29.80;13.27;;;;;;;9.62;84.84;103947.19;5112531;28;20024;-65
2021/12/17 08:10:19;;;;;;;33.83;13.30;;;;;;;9.64;84.83;103948.22;5112397;28;20027;-65
2021/12/17 08:12:45;;;;;;;36.75;12.98;;;;;;;9.61;84.66;103948.94;5116020;28;20028;-65
2021/12/17 08:15:12;;;;;;;29.00;12.75;;;;;;;9.57;85.07;103946.91;5116080;28;20314;-65
2021/12/17 08:18:05;;;;;;;33.80;13.20;;;;;;;9.57;84.97;103952.19;5116150;28;20038;-65
2021/12/17 08:25:51;;;;;;;29.10;12.13;;;;;;;9.59;84.93;103957.56;5115947;28;20047;-65
2021/12/17 08:28:18;;;;;;;32.28;13.40;;;;;;;9.54;85.25;103952.88;5115961;28;20023;-65
2021/12/17 08:30:43;;;;;;;31.23;12.63;;;;;;;9.53;85.52;103964.28;5116186;28;20024;-65
2021/12/17 08:33:09;;;;;;;32.42;12.40;;;;;;;9.48;85.66;103965.69;5115813;28;20395;-65
2021/12/17 08:35:36;;;;;;;35.28;13.05;;;;;;;9.47;85.33;103973.53;5115776;28;20020;-65
2021/12/17 08:38:05;;;;;;;30.40;12.70;;;;;;;9.45;85.82;103972.50;5115782;28;20030;-65
2021/12/17 08:40:32;;;;;;;34.55;12.90;;;;;;;9.44;85.94;103966.31;5115836;28;20073;-65
2021/12/17 08:42:58;;;;;;;35.70;12.90;;;;;;;9.45;85.90;103972.50;5115542;28;20028;-65
2021/12/17 08:45:23;;;;;;;34.78;13.35;;;;;;;9.50;86.33;103968.44;5115628;28;20560;-65
2021/12/17 08:47:50;;;;;;;32.83;12.45;;;;;;;9.53;85.83;103973.91;5115647;28;20059;-65
2021/12/17 08:50:16;;;;;;;33.45;13.27;;;;;;;9.50;85.69;103963.16;5115719;28;20058;-65
2021/12/17 08:52:41;;;;;;;37.78;14.30;;;;;;;9.51;85.77;103962.38;5097014;28;20051;-65
2021/12/17 08:55:07;;;;;;;35.30;13.43;;;;;;;9.54;86.20;103958.16;5115269;28;20024;-64
2021/12/17 08:57:33;;;;;;;41.22;14.73;;;;;;;9.57;86.12;103959.19;5115369;28;20088;-64
2021/12/17 09:00:04;;;;;;;33.00;13.88;;;;;;;9.64;86.17;103958.78;5114919;28;20043;-64
2021/12/17 09:02:29;;;;;;;35.28;14.40;;;;;;;9.70;85.87;103962.72;5097128;28;20030;-65
2021/12/17 09:04:55;;;;;;;45.90;15.25;;;;;;;9.72;85.83;103970.72;5115259;28;20031;-65
2021/12/17 09:07:20;;;;;;;37.92;14.90;;;;;;;9.71;85.83;103961.91;5096757;28;20031;-65
2021/12/17 09:09:47;;;;;;;37.90;15.23;;;;;;;9.69;85.70;103960.00;5115176;28;20031;-64
2021/12/17 09:12:13;;;;;;;35.80;15.52;;;;;;;9.71;85.95;103968.91;5115090;28;20384;-64
2021/12/17 09:14:38;;;;;;;35.05;16.33;;;;;;;9.70;85.96;103981.19;5114897;28;20030;-65
2021/12/17 09:17:04;;;;;;;38.83;17.08;;;;;;;9.65;85.81;103977.34;5115304;28;20019;-65
2021/12/17 09:19:29;;;;;;;39.92;16.80;;;;;;;9.70;86.04;103993.50;5114908;28;20106;-65
2021/12/17 09:21:54;;;;;;;38.90;16.27;;;;;;;9.67;86.18;103993.28;5114054;28;20028;-65
2021/12/17 09:24:20;;;;;;;38.70;16.80;;;;;;;9.66;86.08;103988.81;5114512;28;20129;-65
2021/12/17 09:26:45;;;;;;;38.40;17.27;;;;;;;9.66;86.02;103999.38;5114776;28;20043;-65
2021/12/17 09:29:11;;;;;;;34.33;16.48;;;;;;;9.64;86.50;103998.41;5115059;28;20031;-65
2021/12/17 09:31:36;;;;;;;36.95;16.20;;;;;;;9.62;86.38;104002.66;5114787;28;20472;-65
2021/12/17 09:34:02;;;;;;;35.10;14.98;;;;;;;9.58;86.56;103996.25;5114899;28;20020;-64
2021/12/17 09:36:28;;;;;;;36.72;15.77;;;;;;;9.56;86.79;103999.63;5114477;28;20491;-65
2021/12/17 09:38:53;;;;;;;40.90;16.17;;;;;;;9.54;87.04;104002.13;5114605;28;20028;-65
2021/12/17 09:41:21;;;;;;;36.83;15.50;;;;;;;9.57;87.07;104004.97;5114541;28;20054;-64
2021/12/17 09:43:48;;;;;;;32.58;14.20;;;;;;;9.57;86.74;104009.34;5114466;28;20024;-65
2021/12/17 09:46:14;;;;;;;30.90;13.93;;;;;;;9.54;86.75;104005.69;5114514;28;20447;-64
2021/12/17 09:48:40;;;;;;;33.45;14.27;;;;;;;9.60;86.86;104010.47;5114601;28;20107;-64
2021/12/17 09:51:08;;;;;;;35.80;15.23;;;;;;;9.64;87.03;104020.44;5114468;28;20023;-64
2021/12/17 09:53:34;;;;;;;27.55;13.07;;;;;;;9.65;86.62;104022.25;5114114;28;20440;-64
2021/12/17 09:56:00;;;;;;;31.40;14.02;;;;;;;9.66;86.71;104025.78;5114308;28;20521;-64
2021/12/17 09:58:26;;;;;;;33.40;14.38;;;;;;;9.68;86.77;104014.53;5095754;28;20047;-64
2021/12/17 10:00:51;;;;;;;30.25;13.52;;;;;;;9.77;86.36;104025.69;5114502;28;20388;-64
2021/12/17 10:03:18;;;;;;;30.08;13.50;;;;;;;9.81;86.28;104028.50;5114182;28;20028;-64
2021/12/17 10:05:44;;;;;;;32.03;14.30;;;;;;;9.79;86.43;104029.31;5114368;28;20031;-64
2021/12/17 10:08:11;;;;;;;33.20;15.50;;;;;;;9.78;86.15;104034.53;5113857;28;20033;-64
2021/12/17 10:10:54;;;;;;;32.08;15.50;;;;;;;9.69;86.43;104026.00;5113948;28;20028;-64
2021/12/17 10:13:38;;;;;;;29.27;12.73;;;;;;;9.72;86.78;104027.13;5114119;28;20016;-64
2021/12/17 10:16:10;;;;;;;27.98;11.90;;;;;;;9.69;86.72;104023.38;5113661;28;20433;-64
2021/12/17 10:18:41;;;;;;;26.98;12.02;;;;;;;9.78;86.76;104030.16;5114023;28;20028;-64
2021/12/17 10:21:26;;;;;;;27.50;12.00;;;;;;;9.82;86.65;104033.91;5113668;28;20476;-65
2021/12/17 10:23:53;;;;;;;25.27;12.32;;;;;;;9.81;86.61;104031.16;5095452;28;20028;-64
2021/12/17 10:26:20;;;;;;;23.25;10.55;;;;;;;9.82;86.17;104038.28;5113716;28;20035;-64
2021/12/17 10:29:04;;;;;;;23.67;10.88;;;;;;;9.77;86.32;104030.06;5113773;28;20082;-64
2021/12/17 10:31:35;;;;;;;29.25;11.15;;;;;;;9.75;86.21;104040.50;5113544;28;20031;-64
2021/12/17 10:34:03;;;;;;;23.33;10.52;;;;;;;9.81;86.19;104031.16;5113276;28;20034;-64
2021/12/17 10:36:43;;;;;;;19.05;9.57;;;;;;;9.82;86.04;104025.06;5113509;28;20117;-64
2021/12/17 10:39:21;;;;;;;24.38;11.88;;;;;;;9.78;85.96;104030.16;5113470;28;20027;-64
2021/12/17 10:41:49;;;;;;;22.88;10.75;;;;;;;9.78;85.90;104027.50;5113196;28;20102;-64
2021/12/17 10:44:14;;;;;;;24.95;10.38;;;;;;;9.79;85.86;104039.88;5113801;28;20054;-64
2021/12/17 10:46:56;;;;;;;25.48;12.00;;;;;;;9.77;86.11;104033.63;5113203;28;20027;-64
2021/12/17 10:49:25;;;;;;;29.63;12.10;;;;;;;9.78;86.15;104038.06;5113196;28;20127;-64
2021/12/17 10:52:04;;;;;;;27.15;12.05;;;;;;;9.78;86.16;104035.44;5113366;28;20323;-64
2021/12/17 10:54:29;;;;;;;24.98;11.93;;;;;;;9.77;86.02;104036.25;5112825;28;20031;-64
2021/12/17 10:56:55;;;;;;;25.08;11.55;;;;;;;9.78;86.25;104035.44;5112495;28;20392;-64
2021/12/17 10:59:26;;;;;;;26.00;12.00;;;;;;;9.75;86.57;104044.88;5094565;28;20119;-64
2021/12/17 11:02:05;;;;;;;27.08;11.82;;;;;;;9.77;86.50;104038.00;5113388;28;20015;-64
2021/12/17 11:04:43;;;;;;;30.33;12.07;;;;;;;9.80;86.58;104040.81;5094833;28;20043;-64
2021/12/17 11:07:14;;;;;;;23.38;9.68;;;;;;;9.82;86.13;104047.13;5113122;28;20616;-64
2021/12/17 11:09:54;;;;;;;23.52;10.40;;;;;;;9.85;86.05;104035.81;5112987;28;20024;-64
2021/12/17 11:12:20;;;;;;;23.92;10.35;;;;;;;9.89;85.71;104038.78;5113409;28;20038;-64
2021/12/17 11:14:47;;;;;;;25.02;11.02;;;;;;;9.89;86.42;104044.06;5112802;28;20030;-64
2021/12/17 11:17:16;;;;;;;24.48;10.02;;;;;;;9.93;85.76;104035.50;5113204;28;20111;-65
2021/12/17 11:19:43;;;;;;;24.75;10.48;;;;;;;9.98;86.14;104028.81;5113186;28;20031;-65
2021/12/17 11:22:09;;;;;;;25.23;9.60;;;;;;;9.95;85.64;104025.97;5094790;28;20448;-64
2021/12/17 11:24:36;;;;;;;21.63;9.93;;;;;;;9.93;85.97;104029.31;5110481;28;20135;-64
2021/12/17 11:27:04;;;;;;;24.63;9.82;;;;;;;9.88;86.18;104028.09;5113103;28;20035;-64
2021/12/17 11:29:30;;;;;;;21.13;9.43;;;;;;;9.89;85.88;104025.56;5112727;28;20023;-64
2021/12/17 11:31:58;;;;;;;22.38;10.07;;;;;;;9.86;85.77;104012.16;5112642;28;20039;-65
2021/12/17 11:34:25;;;;;;;19.80;9.50;;;;;;;9.87;86.04;104013.06;5112793;28;20496;-64
2021/12/17 11:36:51;;;;;;;24.02;9.98;;;;;;;9.88;86.38;104013.16;5112441;28;20503;-64
2021/12/17 11:39:30;;;;;;;18.10;9.82;;;;;;;9.89;85.92;104008.78;5112622;28;20027;-63
2021/12/17 11:42:25;;;;;;;19.67;10.07;;;;;;;9.90;85.78;104002.72;5112641;28;20043;-63
2021/12/17 11:47:56;;;;;;;20.38;10.32;;;;;;;9.92;86.16;103999.34;5116500;28;20187;-64
2021/12/17 11:50:22;;;;;;;19.75;10.35;;;;;;;9.92;85.83;103995.78;5116915;28;20041;-64
2021/12/17 11:52:53;;;;;;;20.92;10.32;;;;;;;9.90;86.03;103995.69;5116250;28;20052;-64
2021/12/17 11:55:36;;;;;;;19.80;10.13;;;;;;;9.87;86.14;103995.50;5116557;28;20041;-64
2021/12/17 11:58:06;;;;;;;;;;;;;;;9.91;85.61;103989.59;5117059;28;20027;-64
2021/12/17 12:00:41;;;;;;;23.42;12.50;;;;;;;9.88;86.22;103994.66;5116562;28;20002;-64
2021/12/17 12:03:19;;;;;;;20.65;10.57;;;;;;;9.93;85.74;103992.31;5116589;28;20187;-64
2021/12/17 12:06:05;;;;;;;20.63;10.95;;;;;;;9.96;86.40;103992.53;5116225;28;20027;-63
2021/12/17 12:08:50;;;;;;;18.15;10.02;;;;;;;10.00;86.20;103992.81;5116177;28;20062;-64
2021/12/17 12:11:26;;;;;;;17.55;9.85;;;;;;;9.99;85.84;103998.00;5116347;28;20062;-63
2021/12/17 12:13:55;;;;;;;18.00;9.85;;;;;;;9.96;85.96;103995.16;5116170;28;20036;-65
2021/12/17 12:16:26;;;;;;;18.38;9.25;;;;;;;9.96;86.28;104004.00;5115968;28;20072;-64
2021/12/17 12:19:07;;;;;;;16.05;8.60;;;;;;;9.96;85.84;104005.72;5116318;28;20099;-64
2021/12/17 12:21:34;;;;;;;18.55;9.32;;;;;;;9.94;85.85;104010.03;5116132;28;20027;-64
2021/12/17 12:24:17;;;;;;;16.77;9.02;;;;;;;9.91;85.96;104004.53;5085205;28;20097;-64
2021/12/17 12:26:44;;;;;;;15.40;8.80;;;;;;;9.96;86.03;104005.72;5095797;28;20031;-64
2021/12/17 12:29:12;;;;;;;18.90;9.25;;;;;;;9.94;85.92;104000.38;5095612;28;20024;-64
2021/12/17 12:31:43;;;;;;;17.13;8.65;;;;;;;9.91;85.66;103988.69;5095466;28;20039;-64
2021/12/17 12:34:13;;;;;;;18.35;8.40;;;;;;;9.95;85.43;103988.97;5095651;28;20024;-64
2021/12/17 12:37:08;;;;;;;17.02;8.18;;;;;;;10.00;85.70;103991.91;5095218;28;20032;-64
2021/12/17 12:39:52;;;;;;;15.85;8.27;;;;;;;9.98;85.58;104002.38;5076672;28;20035;-63
2021/12/17 12:42:19;;;;;;;12.85;7.35;;;;;;;9.94;85.34;103991.53;5076860;28;20071;-63
2021/12/17 12:44:44;;;;;;;15.50;7.30;;;;;;;9.91;85.44;103993.97;5094631;28;20495;-64
2021/12/17 12:47:10;;;;;;;13.48;7.70;;;;;;;9.90;85.38;103994.78;5095100;28;20024;-64
2021/12/17 12:49:49;;;;;;;16.20;7.82;;;;;;;9.90;85.56;103994.78;5095363;28;20099;-64
2021/12/17 12:52:22;;;;;;;15.45;7.43;;;;;;;9.85;85.57;103993.56;5095352;28;20040;-64
2021/12/17 12:54:49;;;;;;;13.82;7.20;;;;;;;9.82;85.26;103989.00;5095068;28;20032;-64
2021/12/17 12:57:27;;;;;;;12.80;7.15;;;;;;;9.84;85.25;103987.38;5094873;28;20020;-64
2021/12/17 12:59:53;;;;;;;12.68;6.80;;;;;;;9.84;84.97;103990.00;5095183;28;20070;-64
2021/12/17 13:02:19;;;;;;;13.65;7.18;;;;;;;9.79;84.83;103987.06;5094741;28;20028;-64
2021/12/17 13:04:46;;;;;;;13.10;6.68;;;;;;;9.82;84.93;103993.38;5095207;28;20032;-64
2021/12/17 13:07:14;;;;;;;11.23;6.55;;;;;;;9.81;85.31;103988.88;5094879;28;20024;-64
2021/12/17 13:09:43;;;;;;;11.90;6.88;;;;;;;9.83;84.86;103992.56;5094995;28;20059;-64
2021/12/17 13:12:10;;;;;;;13.60;7.72;;;;;;;9.81;84.54;103994.16;5094830;28;20016;-64
2021/12/17 13:14:43;;;;;;;12.30;6.95;;;;;;;9.81;84.07;103994.16;5094899;28;20012;-64
2021/12/17 13:20:41;;;;;;;9.48;5.80;;;;;;;9.73;84.17;103989.34;5032352;28;20041;-63
2021/12/17 13:23:18;;;;;;;12.38;5.43;;;;;;;9.70;84.73;103982.94;5018363;28;20517;-64
2021/12/17 13:25:43;;;;;;;7.78;4.78;;;;;;;9.67;83.74;103983.63;5032158;28;20112;-64
2021/12/17 13:28:09;;;;;;;8.95;4.97;;;;;;;9.62;84.18;103986.81;5032187;28;20583;-64
2021/12/17 13:30:34;;;;;;;6.03;4.43;;;;;;;9.60;84.03;103988.44;5032055;28;20471;-64
2021/12/17 13:33:00;;;;;;;7.72;4.80;;;;;;;9.60;83.79;103985.81;5015606;28;20474;-64
2021/12/17 13:35:27;;;;;;;6.35;4.40;;;;;;;9.61;84.29;103982.34;5031877;28;20034;-64
2021/12/17 13:38:01;;;;;;;7.72;5.00;;;;;;;9.63;84.19;103984.25;5031958;28;20029;-64
2021/12/17 13:40:27;;;;;;;7.28;3.85;;;;;;;9.60;83.09;103981.44;5031977;28;20065;-64
2021/12/17 13:42:55;;;;;;;7.13;4.22;;;;;;;9.63;83.00;103989.53;5032017;28;20047;-64
2021/12/17 13:45:21;;;;;;;6.45;3.22;;;;;;;9.59;82.23;103982.22;5031797;28;20151;-64
2021/12/17 13:47:55;;;;;;;4.45;3.35;;;;;;;9.56;82.65;103979.41;5031803;28;20025;-64
2021/12/17 13:50:33;;;;;;;6.68;4.20;;;;;;;9.54;83.01;103984.56;5031692;28;20044;-64
2021/12/17 13:53:00;;;;;;;7.00;4.00;;;;;;;9.52;82.86;103982.66;5031510;28;20108;-64
2021/12/17 13:55:29;;;;;;;5.90;3.70;;;;;;;9.52;82.92;103988.84;5047698;28;20118;-64
2021/12/17 13:57:56;;;;;;;7.15;3.67;;;;;;;9.50;82.78;103984.25;5093941;28;20108;-63
2021/12/17 14:00:26;;;;;;;6.80;4.05;;;;;;;9.48;83.03;103984.19;5094107;28;20016;-64
2021/12/17 14:02:54;;;;;;;5.82;3.63;;;;;;;9.47;83.58;103984.09;5093726;28;20032;-64
2021/12/17 14:05:40;;;;;;;7.85;4.18;;;;;;;9.43;83.08;103977.69;5093638;28;20035;-63
2021/12/17 14:08:09;;;;;;;5.47;3.80;;;;;;;9.43;82.93;103982.06;5093254;28;20039;-64
2021/12/17 14:10:36;;;;;;;8.18;4.50;;;;;;;9.43;83.80;103995.25;5093385;28;20028;-64